sensor_id;sensor_type;location;lat;lon;timestamp;P1;durP1;ratioP1;P2;durP2;ratioP2
74789;SDS011;63318;52.406;13.416;2022-10-31T00:01:32;12.90;;;7.90;;
74789;SDS011;63318;52.406;13.416;2022-10-31T00:04:02;17.30;;;8.30;;
74789;SDS011;63318;52.406;13.416;2022-10-31T00:06:31;12.70;;;8.50;;
74789;SDS011;63318;52.406;13.416;2022-10-31T00:09:01;14.20;;;7.60;;
74789;SDS011;63318;52.406;13.416;2022-10-31T00:11:30;10.80;;;7.50;;
74789;SDS011;63318;52.406;13.416;2022-10-31T00:13:58;14.40;;;7.70;;
74789;SDS011;63318;52.406;13.416;2022-10-31T00:16:27;11.10;;;7.40;;
74789;SDS011;63318;52.406;13.416;2022-10-31T00:18:56;13.00;;;8.20;;
74789;SDS011;63318;52.406;13.416;2022-10-31T00:21:25;14.60;;;7.70;;
74789;SDS011;63318;52.406;13.416;2022-10-31T00:23:54;16.20;;;8.80;;
74789;SDS011;63318;52.406;13.416;2022-10-31T00:26:23;18.00;;;8.60;;
74789;SDS011;63318;52.406;13.416;2022-10-31T00:28:52;11.40;;;7.40;;
74789;SDS011;63318;52.406;13.416;2022-10-31T00:31:21;13.50;;;7.40;;
74789;SDS011;63318;52.406;13.416;2022-10-31T00:33:49;13.80;;;7.70;;
74789;SDS011;63318;52.406;13.416;2022-10-31T00:36:18;14.10;;;8.00;;
74789;SDS011;63318;52.406;13.416;2022-10-31T00:38:46;12.30;;;8.00;;
74789;SDS011;63318;52.406;13.416;2022-10-31T00:41:16;12.60;;;8.50;;
74789;SDS011;63318;52.406;13.416;2022-10-31T00:43:45;12.30;;;7.60;;
74789;SDS011;63318;52.406;13.416;2022-10-31T00:46:13;13.60;;;9.20;;
74789;SDS011;63318;52.406;13.416;2022-10-31T00:48:42;15.50;;;7.40;;
74789;SDS011;63318;52.406;13.416;2022-10-31T00:51:10;16.30;;;8.80;;
74789;SDS011;63318;52.406;13.416;2022-10-31T00:53:39;15.20;;;7.80;;
74789;SDS011;63318;52.406;13.416;2022-10-31T00:56:07;14.00;;;8.50;;
74789;SDS011;63318;52.406;13.416;2022-10-31T00:58:35;15.70;;;7.80;;
74789;SDS011;63318;52.406;13.416;2022-10-31T01:01:04;11.20;;;6.60;;
74789;SDS011;63318;52.406;13.416;2022-10-31T01:03:32;16.90;;;8.80;;
74789;SDS011;63318;52.406;13.416;2022-10-31T01:06:03;15.10;;;9.30;;
74789;SDS011;63318;52.406;13.416;2022-10-31T01:08:33;15.60;;;8.40;;
74789;SDS011;63318;52.406;13.416;2022-10-31T01:11:03;18.20;;;8.80;;
74789;SDS011;63318;52.406;13.416;2022-10-31T01:13:34;16.10;;;10.10;;
74789;SDS011;63318;52.406;13.416;2022-10-31T01:16:03;14.70;;;9.00;;
74789;SDS011;63318;52.406;13.416;2022-10-31T01:18:33;22.10;;;11.00;;
74789;SDS011;63318;52.406;13.416;2022-10-31T01:21:02;19.10;;;9.90;;
74789;SDS011;63318;52.406;13.416;2022-10-31T01:23:34;16.70;;;10.30;;
74789;SDS011;63318;52.406;13.416;2022-10-31T01:26:07;14.60;;;9.40;;
74789;SDS011;63318;52.406;13.416;2022-10-31T01:28:38;20.30;;;9.30;;
74789;SDS011;63318;52.406;13.416;2022-10-31T01:31:10;19.40;;;8.60;;
74789;SDS011;63318;52.406;13.416;2022-10-31T01:33:39;14.70;;;8.60;;
74789;SDS011;63318;52.406;13.416;2022-10-31T01:36:15;15.80;;;8.50;;
74789;SDS011;63318;52.406;13.416;2022-10-31T01:41:13;16.10;;;8.00;;
74789;SDS011;63318;52.406;13.416;2022-10-31T01:43:43;14.10;;;8.00;;
74789;SDS011;63318;52.406;13.416;2022-10-31T01:46:17;15.50;;;8.40;;
74789;SDS011;63318;52.406;13.416;2022-10-31T01:48:48;15.20;;;8.40;;
74789;SDS011;63318;52.406;13.416;2022-10-31T01:51:19;12.80;;;8.30;;
74789;SDS011;63318;52.406;13.416;2022-10-31T01:53:50;13.70;;;7.50;;
74789;SDS011;63318;52.406;13.416;2022-10-31T01:56:21;11.70;;;8.30;;
74789;SDS011;63318;52.406;13.416;2022-10-31T01:58:50;13.40;;;8.00;;
74789;SDS011;63318;52.406;13.416;2022-10-31T02:01:21;12.60;;;8.70;;
74789;SDS011;63318;52.406;13.416;2022-10-31T02:03:49;15.10;;;8.30;;
74789;SDS011;63318;52.406;13.416;2022-10-31T02:06:21;13.80;;;8.90;;
74789;SDS011;63318;52.406;13.416;2022-10-31T02:08:57;11.90;;;7.80;;
74789;SDS011;63318;52.406;13.416;2022-10-31T02:11:28;15.50;;;8.30;;
74789;SDS011;63318;52.406;13.416;2022-10-31T02:13:57;17.70;;;7.60;;
74789;SDS011;63318;52.406;13.416;2022-10-31T02:16:27;14.30;;;7.40;;
74789;SDS011;63318;52.406;13.416;2022-10-31T02:18:55;17.10;;;7.50;;
74789;SDS011;63318;52.406;13.416;2022-10-31T02:21:25;11.10;;;6.70;;
74789;SDS011;63318;52.406;13.416;2022-10-31T02:24:26;11.90;;;7.00;;
74789;SDS011;63318;52.406;13.416;2022-10-31T02:27:18;12.70;;;7.10;;
74789;SDS011;63318;52.406;13.416;2022-10-31T02:30:05;16.90;;;7.00;;
74789;SDS011;63318;52.406;13.416;2022-10-31T02:35:37;14.40;;;7.50;;
74789;SDS011;63318;52.406;13.416;2022-10-31T02:38:16;14.60;;;6.60;;
74789;SDS011;63318;52.406;13.416;2022-10-31T02:40:53;12.50;;;7.90;;
74789;SDS011;63318;52.406;13.416;2022-10-31T02:43:30;14.80;;;7.50;;
74789;SDS011;63318;52.406;13.416;2022-10-31T02:46:04;12.10;;;7.80;;
74789;SDS011;63318;52.406;13.416;2022-10-31T02:48:40;13.80;;;8.10;;
74789;SDS011;63318;52.406;13.416;2022-10-31T02:51:11;12.80;;;8.00;;
74789;SDS011;63318;52.406;13.416;2022-10-31T02:53:41;15.00;;;7.90;;
74789;SDS011;63318;52.406;13.416;2022-10-31T02:56:12;13.80;;;7.90;;
74789;SDS011;63318;52.406;13.416;2022-10-31T02:58:42;11.20;;;6.70;;
74789;SDS011;63318;52.406;13.416;2022-10-31T03:01:22;14.10;;;7.50;;
74789;SDS011;63318;52.406;13.416;2022-10-31T03:04:11;13.20;;;6.80;;
74789;SDS011;63318;52.406;13.416;2022-10-31T03:06:56;13.80;;;7.10;;
74789;SDS011;63318;52.406;13.416;2022-10-31T03:09:36;13.20;;;6.80;;
74789;SDS011;63318;52.406;13.416;2022-10-31T03:12:14;11.30;;;6.50;;
74789;SDS011;63318;52.406;13.416;2022-10-31T03:14:50;14.40;;;7.40;;
74789;SDS011;63318;52.406;13.416;2022-10-31T03:17:29;13.40;;;7.90;;
74789;SDS011;63318;52.406;13.416;2022-10-31T03:20:04;13.60;;;7.00;;
74789;SDS011;63318;52.406;13.416;2022-10-31T03:22:36;15.40;;;7.30;;
74789;SDS011;63318;52.406;13.416;2022-10-31T03:25:08;13.20;;;8.00;;
74789;SDS011;63318;52.406;13.416;2022-10-31T03:27:39;9.50;;;7.10;;
74789;SDS011;63318;52.406;13.416;2022-10-31T03:30:10;11.00;;;6.80;;
74789;SDS011;63318;52.406;13.416;2022-10-31T03:32:40;10.20;;;6.80;;
74789;SDS011;63318;52.406;13.416;2022-10-31T03:35:13;14.00;;;7.80;;
74789;SDS011;63318;52.406;13.416;2022-10-31T03:37:45;10.10;;;6.80;;
74789;SDS011;63318;52.406;13.416;2022-10-31T03:40:15;16.40;;;7.20;;
74789;SDS011;63318;52.406;13.416;2022-10-31T03:42:50;10.80;;;6.50;;
74789;SDS011;63318;52.406;13.416;2022-10-31T03:45:21;13.50;;;6.90;;
74789;SDS011;63318;52.406;13.416;2022-10-31T03:47:52;13.20;;;7.20;;
74789;SDS011;63318;52.406;13.416;2022-10-31T03:50:23;15.00;;;6.80;;
74789;SDS011;63318;52.406;13.416;2022-10-31T03:52:56;13.00;;;7.60;;
74789;SDS011;63318;52.406;13.416;2022-10-31T03:55:31;11.40;;;6.80;;
74789;SDS011;63318;52.406;13.416;2022-10-31T03:58:06;14.00;;;6.70;;
74789;SDS011;63318;52.406;13.416;2022-10-31T04:00:37;16.00;;;7.30;;
74789;SDS011;63318;52.406;13.416;2022-10-31T04:03:10;11.00;;;7.40;;
74789;SDS011;63318;52.406;13.416;2022-10-31T04:05:42;11.70;;;7.80;;
74789;SDS011;63318;52.406;13.416;2022-10-31T04:08:13;13.20;;;6.70;;
74789;SDS011;63318;52.406;13.416;2022-10-31T04:10:46;13.30;;;7.30;;
74789;SDS011;63318;52.406;13.416;2022-10-31T04:13:17;11.30;;;6.80;;
74789;SDS011;63318;52.406;13.416;2022-10-31T04:15:49;11.50;;;7.40;;
74789;SDS011;63318;52.406;13.416;2022-10-31T04:18:21;15.80;;;7.00;;
74789;SDS011;63318;52.406;13.416;2022-10-31T04:20:58;14.60;;;7.20;;
74789;SDS011;63318;52.406;13.416;2022-10-31T04:23:27;15.50;;;7.10;;
74789;SDS011;63318;52.406;13.416;2022-10-31T04:25:56;14.90;;;7.00;;
74789;SDS011;63318;52.406;13.416;2022-10-31T04:28:25;15.60;;;8.00;;
74789;SDS011;63318;52.406;13.416;2022-10-31T04:30:53;11.80;;;6.70;;
74789;SDS011;63318;52.406;13.416;2022-10-31T04:33:21;13.20;;;7.80;;
74789;SDS011;63318;52.406;13.416;2022-10-31T04:35:49;14.70;;;7.10;;
74789;SDS011;63318;52.406;13.416;2022-10-31T04:38:17;13.50;;;7.00;;
74789;SDS011;63318;52.406;13.416;2022-10-31T04:40:46;13.60;;;7.40;;
74789;SDS011;63318;52.406;13.416;2022-10-31T04:43:14;16.10;;;7.70;;
74789;SDS011;63318;52.406;13.416;2022-10-31T04:45:42;14.20;;;7.10;;
74789;SDS011;63318;52.406;13.416;2022-10-31T04:48:10;11.90;;;7.00;;
74789;SDS011;63318;52.406;13.416;2022-10-31T04:50:39;14.20;;;7.20;;
74789;SDS011;63318;52.406;13.416;2022-10-31T04:53:07;12.30;;;6.50;;
74789;SDS011;63318;52.406;13.416;2022-10-31T04:55:36;11.90;;;6.90;;
74789;SDS011;63318;52.406;13.416;2022-10-31T04:58:04;13.60;;;6.50;;
74789;SDS011;63318;52.406;13.416;2022-10-31T05:00:32;13.30;;;7.00;;
74789;SDS011;63318;52.406;13.416;2022-10-31T05:03:00;11.70;;;6.50;;
74789;SDS011;63318;52.406;13.416;2022-10-31T05:05:29;10.70;;;6.00;;
74789;SDS011;63318;52.406;13.416;2022-10-31T05:07:58;11.40;;;6.40;;
74789;SDS011;63318;52.406;13.416;2022-10-31T05:10:27;11.60;;;7.40;;
74789;SDS011;63318;52.406;13.416;2022-10-31T05:12:56;12.60;;;7.70;;
74789;SDS011;63318;52.406;13.416;2022-10-31T05:15:26;17.80;;;7.30;;
74789;SDS011;63318;52.406;13.416;2022-10-31T05:17:55;10.80;;;7.10;;
74789;SDS011;63318;52.406;13.416;2022-10-31T05:20:24;12.90;;;7.60;;
74789;SDS011;63318;52.406;13.416;2022-10-31T05:22:54;12.60;;;7.60;;
74789;SDS011;63318;52.406;13.416;2022-10-31T05:25:25;13.40;;;7.60;;
74789;SDS011;63318;52.406;13.416;2022-10-31T05:27:55;15.30;;;7.30;;
74789;SDS011;63318;52.406;13.416;2022-10-31T05:30:24;12.10;;;7.10;;
74789;SDS011;63318;52.406;13.416;2022-10-31T05:32:53;13.80;;;7.00;;
74789;SDS011;63318;52.406;13.416;2022-10-31T05:35:23;12.30;;;6.10;;
74789;SDS011;63318;52.406;13.416;2022-10-31T05:37:52;15.80;;;6.10;;
74789;SDS011;63318;52.406;13.416;2022-10-31T05:40:20;11.80;;;6.60;;
74789;SDS011;63318;52.406;13.416;2022-10-31T05:42:51;10.90;;;6.60;;
74789;SDS011;63318;52.406;13.416;2022-10-31T05:45:21;9.40;;;5.90;;
74789;SDS011;63318;52.406;13.416;2022-10-31T05:47:53;14.20;;;7.40;;
74789;SDS011;63318;52.406;13.416;2022-10-31T05:50:22;13.30;;;6.90;;
74789;SDS011;63318;52.406;13.416;2022-10-31T05:52:55;11.10;;;5.70;;
74789;SDS011;63318;52.406;13.416;2022-10-31T05:55:25;13.10;;;5.80;;
74789;SDS011;63318;52.406;13.416;2022-10-31T05:57:54;12.30;;;6.80;;
74789;SDS011;63318;52.406;13.416;2022-10-31T06:00:23;14.90;;;7.60;;
74789;SDS011;63318;52.406;13.416;2022-10-31T06:02:58;15.50;;;7.70;;
74789;SDS011;63318;52.406;13.416;2022-10-31T06:05:27;14.50;;;7.60;;
74789;SDS011;63318;52.406;13.416;2022-10-31T06:07:56;13.90;;;7.80;;
74789;SDS011;63318;52.406;13.416;2022-10-31T06:10:25;10.90;;;6.30;;
74789;SDS011;63318;52.406;13.416;2022-10-31T06:12:53;12.40;;;6.70;;
74789;SDS011;63318;52.406;13.416;2022-10-31T06:15:21;13.40;;;7.10;;
74789;SDS011;63318;52.406;13.416;2022-10-31T06:17:58;12.10;;;6.60;;
74789;SDS011;63318;52.406;13.416;2022-10-31T06:20:27;9.60;;;6.00;;
74789;SDS011;63318;52.406;13.416;2022-10-31T06:22:56;15.90;;;7.70;;
74789;SDS011;63318;52.406;13.416;2022-10-31T06:25:24;14.60;;;7.20;;
74789;SDS011;63318;52.406;13.416;2022-10-31T06:27:53;13.60;;;7.70;;
74789;SDS011;63318;52.406;13.416;2022-10-31T06:30:22;11.70;;;7.00;;
74789;SDS011;63318;52.406;13.416;2022-10-31T06:32:50;11.40;;;6.60;;
74789;SDS011;63318;52.406;13.416;2022-10-31T06:35:18;13.30;;;7.50;;
74789;SDS011;63318;52.406;13.416;2022-10-31T06:37:51;14.80;;;7.40;;
74789;SDS011;63318;52.406;13.416;2022-10-31T06:40:20;13.70;;;8.10;;
74789;SDS011;63318;52.406;13.416;2022-10-31T06:42:49;18.50;;;8.10;;
74789;SDS011;63318;52.406;13.416;2022-10-31T06:45:23;14.30;;;7.50;;
74789;SDS011;63318;52.406;13.416;2022-10-31T06:47:52;12.80;;;7.50;;
74789;SDS011;63318;52.406;13.416;2022-10-31T06:50:22;16.80;;;8.10;;
74789;SDS011;63318;52.406;13.416;2022-10-31T06:52:51;16.00;;;8.00;;
74789;SDS011;63318;52.406;13.416;2022-10-31T06:55:20;14.00;;;7.30;;
74789;SDS011;63318;52.406;13.416;2022-10-31T06:57:52;16.70;;;8.30;;
74789;SDS011;63318;52.406;13.416;2022-10-31T07:00:21;18.10;;;8.30;;
74789;SDS011;63318;52.406;13.416;2022-10-31T07:02:54;15.90;;;7.20;;
74789;SDS011;63318;52.406;13.416;2022-10-31T07:05:23;16.10;;;7.00;;
74789;SDS011;63318;52.406;13.416;2022-10-31T07:07:55;13.20;;;8.20;;
74789;SDS011;63318;52.406;13.416;2022-10-31T07:10:26;15.60;;;8.00;;
74789;SDS011;63318;52.406;13.416;2022-10-31T07:12:56;13.10;;;7.40;;
74789;SDS011;63318;52.406;13.416;2022-10-31T07:15:25;12.30;;;7.80;;
74789;SDS011;63318;52.406;13.416;2022-10-31T07:17:58;16.90;;;8.20;;
74789;SDS011;63318;52.406;13.416;2022-10-31T07:20:28;13.00;;;8.10;;
74789;SDS011;63318;52.406;13.416;2022-10-31T07:22:57;15.50;;;7.90;;
74789;SDS011;63318;52.406;13.416;2022-10-31T07:25:25;18.30;;;8.80;;
74789;SDS011;63318;52.406;13.416;2022-10-31T07:27:54;15.10;;;9.20;;
74789;SDS011;63318;52.406;13.416;2022-10-31T07:30:23;17.50;;;9.20;;
74789;SDS011;63318;52.406;13.416;2022-10-31T07:32:51;20.40;;;8.60;;
74789;SDS011;63318;52.406;13.416;2022-10-31T07:35:20;19.70;;;10.00;;
74789;SDS011;63318;52.406;13.416;2022-10-31T07:37:49;21.60;;;10.90;;
74789;SDS011;63318;52.406;13.416;2022-10-31T07:40:18;16.40;;;10.30;;
74789;SDS011;63318;52.406;13.416;2022-10-31T07:42:48;16.20;;;9.10;;
74789;SDS011;63318;52.406;13.416;2022-10-31T07:45:18;17.30;;;9.20;;
74789;SDS011;63318;52.406;13.416;2022-10-31T07:47:47;16.50;;;8.80;;
74789;SDS011;63318;52.406;13.416;2022-10-31T07:50:18;16.90;;;9.50;;
74789;SDS011;63318;52.406;13.416;2022-10-31T07:52:48;18.00;;;9.70;;
74789;SDS011;63318;52.406;13.416;2022-10-31T07:55:23;16.60;;;10.40;;
74789;SDS011;63318;52.406;13.416;2022-10-31T07:57:57;17.60;;;9.60;;
74789;SDS011;63318;52.406;13.416;2022-10-31T08:00:27;18.30;;;10.80;;
74789;SDS011;63318;52.406;13.416;2022-10-31T08:02:59;19.60;;;10.30;;
74789;SDS011;63318;52.406;13.416;2022-10-31T08:05:28;20.70;;;11.40;;
74789;SDS011;63318;52.406;13.416;2022-10-31T08:07:57;21.20;;;12.10;;
74789;SDS011;63318;52.406;13.416;2022-10-31T08:10:26;22.40;;;11.30;;
74789;SDS011;63318;52.406;13.416;2022-10-31T08:12:57;20.80;;;10.10;;
74789;SDS011;63318;52.406;13.416;2022-10-31T08:17:53;25.90;;;11.00;;
74789;SDS011;63318;52.406;13.416;2022-10-31T08:20:22;19.90;;;11.40;;
74789;SDS011;63318;52.406;13.416;2022-10-31T08:22:54;22.00;;;10.10;;
74789;SDS011;63318;52.406;13.416;2022-10-31T08:25:23;18.40;;;9.30;;
74789;SDS011;63318;52.406;13.416;2022-10-31T08:27:53;16.30;;;10.00;;
74789;SDS011;63318;52.406;13.416;2022-10-31T08:30:22;18.60;;;10.20;;
74789;SDS011;63318;52.406;13.416;2022-10-31T08:32:58;19.70;;;11.40;;
74789;SDS011;63318;52.406;13.416;2022-10-31T08:35:28;17.60;;;11.60;;
74789;SDS011;63318;52.406;13.416;2022-10-31T08:37:57;20.90;;;10.50;;
74789;SDS011;63318;52.406;13.416;2022-10-31T08:40:26;19.90;;;9.90;;
74789;SDS011;63318;52.406;13.416;2022-10-31T08:42:59;20.80;;;10.50;;
74789;SDS011;63318;52.406;13.416;2022-10-31T08:45:29;20.30;;;10.20;;
74789;SDS011;63318;52.406;13.416;2022-10-31T08:47:59;17.90;;;11.20;;
74789;SDS011;63318;52.406;13.416;2022-10-31T08:50:29;21.10;;;11.00;;
74789;SDS011;63318;52.406;13.416;2022-10-31T08:53:01;25.90;;;10.90;;
74789;SDS011;63318;52.406;13.416;2022-10-31T08:55:30;25.60;;;11.50;;
74789;SDS011;63318;52.406;13.416;2022-10-31T08:57:59;19.60;;;11.40;;
74789;SDS011;63318;52.406;13.416;2022-10-31T09:00:28;20.00;;;10.90;;
74789;SDS011;63318;52.406;13.416;2022-10-31T09:02:57;17.50;;;10.70;;
74789;SDS011;63318;52.406;13.416;2022-10-31T09:05:26;18.80;;;10.60;;
74789;SDS011;63318;52.406;13.416;2022-10-31T09:07:56;22.50;;;10.10;;
74789;SDS011;63318;52.406;13.416;2022-10-31T09:10:26;21.70;;;11.30;;
74789;SDS011;63318;52.406;13.416;2022-10-31T09:12:56;24.40;;;10.90;;
74789;SDS011;63318;52.406;13.416;2022-10-31T09:15:25;24.50;;;11.00;;
74789;SDS011;63318;52.406;13.416;2022-10-31T09:17:54;19.30;;;11.70;;
74789;SDS011;63318;52.406;13.416;2022-10-31T09:20:22;23.00;;;11.40;;
74789;SDS011;63318;52.406;13.416;2022-10-31T09:22:56;26.20;;;12.30;;
74789;SDS011;63318;52.406;13.416;2022-10-31T09:25:25;21.90;;;12.50;;
74789;SDS011;63318;52.406;13.416;2022-10-31T09:27:56;21.70;;;12.90;;
74789;SDS011;63318;52.406;13.416;2022-10-31T09:30:26;21.40;;;11.10;;
74789;SDS011;63318;52.406;13.416;2022-10-31T09:32:56;21.70;;;11.40;;
74789;SDS011;63318;52.406;13.416;2022-10-31T09:35:25;22.90;;;11.70;;
74789;SDS011;63318;52.406;13.416;2022-10-31T09:37:57;21.10;;;11.40;;
74789;SDS011;63318;52.406;13.416;2022-10-31T09:40:27;19.20;;;10.20;;
74789;SDS011;63318;52.406;13.416;2022-10-31T09:43:00;24.10;;;12.20;;
74789;SDS011;63318;52.406;13.416;2022-10-31T09:45:36;22.10;;;11.60;;
74789;SDS011;63318;52.406;13.416;2022-10-31T09:48:14;21.40;;;11.90;;
74789;SDS011;63318;52.406;13.416;2022-10-31T09:50:52;22.70;;;11.60;;
74789;SDS011;63318;52.406;13.416;2022-10-31T09:53:25;21.50;;;13.10;;
74789;SDS011;63318;52.406;13.416;2022-10-31T09:55:58;23.30;;;12.00;;
74789;SDS011;63318;52.406;13.416;2022-10-31T09:58:28;26.40;;;12.00;;
74789;SDS011;63318;52.406;13.416;2022-10-31T10:01:00;25.30;;;12.60;;
74789;SDS011;63318;52.406;13.416;2022-10-31T10:03:31;23.40;;;13.30;;
74789;SDS011;63318;52.406;13.416;2022-10-31T10:06:04;25.30;;;12.70;;
74789;SDS011;63318;52.406;13.416;2022-10-31T10:08:38;22.10;;;13.40;;
74789;SDS011;63318;52.406;13.416;2022-10-31T10:11:13;25.90;;;13.80;;
74789;SDS011;63318;52.406;13.416;2022-10-31T10:13:57;30.90;;;13.90;;
74789;SDS011;63318;52.406;13.416;2022-10-31T10:16:46;23.60;;;12.10;;
74789;SDS011;63318;52.406;13.416;2022-10-31T10:19:41;22.50;;;12.80;;
74789;SDS011;63318;52.406;13.416;2022-10-31T10:22:22;25.30;;;12.10;;
74789;SDS011;63318;52.406;13.416;2022-10-31T10:25:08;23.90;;;11.90;;
74789;SDS011;63318;52.406;13.416;2022-10-31T10:27:52;24.10;;;13.70;;
74789;SDS011;63318;52.406;13.416;2022-10-31T10:30:31;24.80;;;12.80;;
74789;SDS011;63318;52.406;13.416;2022-10-31T10:33:08;25.80;;;13.20;;
74789;SDS011;63318;52.406;13.416;2022-10-31T10:35:41;25.90;;;12.40;;
74789;SDS011;63318;52.406;13.416;2022-10-31T10:38:16;23.80;;;12.90;;
74789;SDS011;63318;52.406;13.416;2022-10-31T10:40:50;28.40;;;13.80;;
74789;SDS011;63318;52.406;13.416;2022-10-31T10:43:24;23.60;;;13.30;;
74789;SDS011;63318;52.406;13.416;2022-10-31T10:46:00;28.30;;;14.70;;
74789;SDS011;63318;52.406;13.416;2022-10-31T10:48:47;30.50;;;15.50;;
74789;SDS011;63318;52.406;13.416;2022-10-31T10:51:26;24.40;;;14.20;;
74789;SDS011;63318;52.406;13.416;2022-10-31T10:54:06;28.50;;;15.30;;
74789;SDS011;63318;52.406;13.416;2022-10-31T10:56:56;24.30;;;14.50;;
74789;SDS011;63318;52.406;13.416;2022-10-31T10:59:32;27.60;;;14.50;;
74789;SDS011;63318;52.406;13.416;2022-10-31T11:02:00;34.80;;;14.60;;
74789;SDS011;63318;52.406;13.416;2022-10-31T11:04:30;27.20;;;14.70;;
74789;SDS011;63318;52.406;13.416;2022-10-31T11:07:04;27.40;;;13.40;;
74789;SDS011;63318;52.406;13.416;2022-10-31T11:09:34;25.30;;;13.70;;
74789;SDS011;63318;52.406;13.416;2022-10-31T11:12:07;25.10;;;13.60;;
74789;SDS011;63318;52.406;13.416;2022-10-31T11:14:42;22.90;;;13.00;;
74789;SDS011;63318;52.406;13.416;2022-10-31T11:17:17;24.40;;;14.20;;
74789;SDS011;63318;52.406;13.416;2022-10-31T11:20:00;24.20;;;12.40;;
74789;SDS011;63318;52.406;13.416;2022-10-31T11:22:30;27.70;;;14.10;;
74789;SDS011;63318;52.406;13.416;2022-10-31T11:24:58;26.40;;;12.80;;
74789;SDS011;63318;52.406;13.416;2022-10-31T11:27:27;24.90;;;13.20;;
74789;SDS011;63318;52.406;13.416;2022-10-31T11:30:05;22.60;;;12.90;;
74789;SDS011;63318;52.406;13.416;2022-10-31T11:32:36;25.30;;;13.20;;
74789;SDS011;63318;52.406;13.416;2022-10-31T11:35:12;30.80;;;14.60;;
74789;SDS011;63318;52.406;13.416;2022-10-31T11:37:43;26.10;;;14.70;;
74789;SDS011;63318;52.406;13.416;2022-10-31T11:40:17;22.60;;;13.20;;
74789;SDS011;63318;52.406;13.416;2022-10-31T11:42:47;23.10;;;14.00;;
74789;SDS011;63318;52.406;13.416;2022-10-31T11:45:19;29.90;;;13.60;;
74789;SDS011;63318;52.406;13.416;2022-10-31T11:47:58;24.70;;;14.50;;
74789;SDS011;63318;52.406;13.416;2022-10-31T11:50:34;23.20;;;12.70;;
74789;SDS011;63318;52.406;13.416;2022-10-31T11:53:09;21.70;;;13.20;;
74789;SDS011;63318;52.406;13.416;2022-10-31T11:55:42;22.20;;;12.80;;
74789;SDS011;63318;52.406;13.416;2022-10-31T11:58:21;23.70;;;12.60;;
74789;SDS011;63318;52.406;13.416;2022-10-31T12:00:52;24.10;;;12.90;;
74789;SDS011;63318;52.406;13.416;2022-10-31T12:03:28;21.30;;;13.60;;
74789;SDS011;63318;52.406;13.416;2022-10-31T12:06:04;21.70;;;12.50;;
74789;SDS011;63318;52.406;13.416;2022-10-31T12:11:07;23.20;;;13.80;;
74789;SDS011;63318;52.406;13.416;2022-10-31T12:13:47;25.40;;;13.20;;
74789;SDS011;63318;52.406;13.416;2022-10-31T12:16:28;24.80;;;13.50;;
74789;SDS011;63318;52.406;13.416;2022-10-31T12:19:02;27.60;;;14.40;;
74789;SDS011;63318;52.406;13.416;2022-10-31T12:21:50;24.60;;;13.10;;
74789;SDS011;63318;52.406;13.416;2022-10-31T12:24:32;25.30;;;13.70;;
74789;SDS011;63318;52.406;13.416;2022-10-31T12:27:14;26.10;;;12.90;;
74789;SDS011;63318;52.406;13.416;2022-10-31T12:29:57;23.10;;;12.30;;
74789;SDS011;63318;52.406;13.416;2022-10-31T12:32:38;24.30;;;13.30;;
74789;SDS011;63318;52.406;13.416;2022-10-31T12:35:39;20.20;;;11.60;;
74789;SDS011;63318;52.406;13.416;2022-10-31T12:41:12;23.60;;;12.00;;
74789;SDS011;63318;52.406;13.416;2022-10-31T12:43:53;36.30;;;13.20;;
74789;SDS011;63318;52.406;13.416;2022-10-31T12:46:38;21.60;;;12.00;;
74789;SDS011;63318;52.406;13.416;2022-10-31T12:49:27;23.60;;;12.70;;
74789;SDS011;63318;52.406;13.416;2022-10-31T12:52:17;24.30;;;14.20;;
74789;SDS011;63318;52.406;13.416;2022-10-31T12:55:00;22.60;;;12.10;;
74789;SDS011;63318;52.406;13.416;2022-10-31T12:57:38;20.80;;;12.90;;
74789;SDS011;63318;52.406;13.416;2022-10-31T13:00:12;20.30;;;12.20;;
74789;SDS011;63318;52.406;13.416;2022-10-31T13:02:44;24.20;;;12.30;;
74789;SDS011;63318;52.406;13.416;2022-10-31T13:05:20;31.00;;;14.10;;
74789;SDS011;63318;52.406;13.416;2022-10-31T13:07:54;22.60;;;13.10;;
74789;SDS011;63318;52.406;13.416;2022-10-31T13:10:28;26.60;;;13.40;;
74789;SDS011;63318;52.406;13.416;2022-10-31T13:13:02;27.20;;;15.10;;
74789;SDS011;63318;52.406;13.416;2022-10-31T13:15:41;24.10;;;12.40;;
74789;SDS011;63318;52.406;13.416;2022-10-31T13:18:21;22.90;;;11.30;;
74789;SDS011;63318;52.406;13.416;2022-10-31T13:20:54;24.30;;;13.00;;
74789;SDS011;63318;52.406;13.416;2022-10-31T13:23:26;23.40;;;12.80;;
74789;SDS011;63318;52.406;13.416;2022-10-31T13:25:59;26.60;;;12.10;;
74789;SDS011;63318;52.406;13.416;2022-10-31T13:28:35;22.60;;;12.90;;
74789;SDS011;63318;52.406;13.416;2022-10-31T13:31:08;27.60;;;12.40;;
74789;SDS011;63318;52.406;13.416;2022-10-31T13:33:38;21.80;;;12.40;;
74789;SDS011;63318;52.406;13.416;2022-10-31T13:36:14;26.80;;;11.90;;
74789;SDS011;63318;52.406;13.416;2022-10-31T13:38:48;25.10;;;13.20;;
74789;SDS011;63318;52.406;13.416;2022-10-31T13:41:25;21.70;;;11.90;;
74789;SDS011;63318;52.406;13.416;2022-10-31T13:44:07;24.00;;;11.70;;
74789;SDS011;63318;52.406;13.416;2022-10-31T13:46:41;24.70;;;12.80;;
74789;SDS011;63318;52.406;13.416;2022-10-31T13:49:25;22.00;;;12.30;;
74789;SDS011;63318;52.406;13.416;2022-10-31T13:52:13;24.50;;;12.10;;
74789;SDS011;63318;52.406;13.416;2022-10-31T13:54:44;23.40;;;12.20;;
74789;SDS011;63318;52.406;13.416;2022-10-31T13:57:16;22.00;;;12.10;;
74789;SDS011;63318;52.406;13.416;2022-10-31T13:59:49;25.40;;;12.80;;
74789;SDS011;63318;52.406;13.416;2022-10-31T14:02:22;30.10;;;13.10;;
74789;SDS011;63318;52.406;13.416;2022-10-31T14:04:55;24.20;;;13.00;;
74789;SDS011;63318;52.406;13.416;2022-10-31T14:09:56;26.20;;;13.60;;
74789;SDS011;63318;52.406;13.416;2022-10-31T14:12:30;27.10;;;13.50;;
74789;SDS011;63318;52.406;13.416;2022-10-31T14:15:02;28.20;;;13.70;;
74789;SDS011;63318;52.406;13.416;2022-10-31T14:17:44;23.80;;;12.60;;
74789;SDS011;63318;52.406;13.416;2022-10-31T14:20:24;26.00;;;12.80;;
74789;SDS011;63318;52.406;13.416;2022-10-31T14:22:59;22.50;;;11.60;;
74789;SDS011;63318;52.406;13.416;2022-10-31T14:25:40;24.30;;;13.40;;
74789;SDS011;63318;52.406;13.416;2022-10-31T14:28:19;25.60;;;13.00;;
74789;SDS011;63318;52.406;13.416;2022-10-31T14:30:53;25.00;;;12.40;;
74789;SDS011;63318;52.406;13.416;2022-10-31T14:33:24;21.70;;;11.60;;
74789;SDS011;63318;52.406;13.416;2022-10-31T14:35:56;19.40;;;11.70;;
74789;SDS011;63318;52.406;13.416;2022-10-31T14:38:33;21.10;;;11.60;;
74789;SDS011;63318;52.406;13.416;2022-10-31T14:41:15;21.50;;;13.10;;
74789;SDS011;63318;52.406;13.416;2022-10-31T14:44:10;21.10;;;12.00;;
74789;SDS011;63318;52.406;13.416;2022-10-31T14:46:57;24.00;;;11.90;;
74789;SDS011;63318;52.406;13.416;2022-10-31T14:49:38;19.30;;;11.90;;
74789;SDS011;63318;52.406;13.416;2022-10-31T14:52:19;22.20;;;12.60;;
74789;SDS011;63318;52.406;13.416;2022-10-31T14:54:49;23.40;;;12.00;;
74789;SDS011;63318;52.406;13.416;2022-10-31T14:57:20;22.30;;;12.20;;
74789;SDS011;63318;52.406;13.416;2022-10-31T14:59:52;24.40;;;13.50;;
74789;SDS011;63318;52.406;13.416;2022-10-31T15:02:24;22.30;;;12.10;;
74789;SDS011;63318;52.406;13.416;2022-10-31T15:04:56;25.30;;;13.60;;